Time;durP1;ratioP1;P1;durP2;ratioP2;P2;SDS_P1;SDS_P2;PMS_P1;PMS_P2;Temp;Humidity;BMP_temperature;BMP_pressure;BME280_temperature;BME280_humidity;BME280_pressure;Samples;Min_cycle;Max_cycle;Signal;HPM_P1;HPM_P2
2022/05/24 00:00:38;;;;;;;7.45;3.70;;;;;;;;;;2031974;29;20135;-62
2022/05/24 00:01:38;;;;;;;8.40;3.70;;;;;;;;;;2047699;29;20054;-61
2022/05/24 00:02:39;;;;;;;9.02;3.67;;;;;;;;;;2055225;28;20412;-61
2022/05/24 00:03:41;;;;;;;8.55;3.97;;;;;;;;;;2040231;29;20091;-60
2022/05/24 00:04:43;;;;;;;6.88;3.88;;;;;;;;;;2048420;28;20039;-61
2022/05/24 00:05:44;;;;;;;8.55;3.55;;;;;;;;;;2055843;28;20074;-61
2022/05/24 00:06:46;;;;;;;7.82;3.95;;;;;;;;;;2040485;29;20035;-60
2022/05/24 00:07:46;;;;;;;6.18;3.50;;;;;;;;;;2040159;28;20055;-61
2022/05/24 00:08:47;;;;;;;8.40;3.97;;;;;;;;;;2048492;28;20441;-60
2022/05/24 00:09:48;;;;;;;10.13;4.00;;;;;;;;;;2032481;29;20044;-61
2022/05/24 00:10:49;;;;;;;9.75;4.20;;;;;;;;;;2032114;29;20099;-61
2022/05/24 00:11:49;;;;;;;9.60;4.32;;;;;;;;;;2039281;29;20379;-61
2022/05/24 00:12:50;;;;;;;6.90;3.92;;;;;;;;;;2055592;28;20042;-61
2022/05/24 00:13:51;;;;;;;7.28;3.80;;;;;;;;;;2047996;29;20043;-61
2022/05/24 00:16:13;;;;;;;9.57;4.10;;;;;;;;;;2050426;28;20039;-60
2022/05/24 00:17:13;;;;;;;7.40;4.20;;;;;;;;;;2046535;29;20047;-61
2022/05/24 00:18:17;;;;;;;7.00;4.15;;;;;;;;;;2040291;29;20027;-61
2022/05/24 00:19:18;;;;;;;10.18;4.50;;;;;;;;;;2037602;29;20040;-61
2022/05/24 00:20:19;;;;;;;8.93;4.35;;;;;;;;;;2047643;29;20038;-60
2022/05/24 00:21:20;;;;;;;6.93;4.15;;;;;;;;;;2056179;28;20410;-62
2022/05/24 00:22:21;;;;;;;6.63;4.05;;;;;;;;;;2044348;29;20063;-61
2022/05/24 00:23:22;;;;;;;7.55;4.13;;;;;;;;;;2047859;29;20420;-60
2022/05/24 00:24:23;;;;;;;6.60;4.00;;;;;;;;;;2046719;28;20050;-62
2022/05/24 00:25:24;;;;;;;7.68;4.07;;;;;;;;;;2055748;28;20103;-61
2022/05/24 00:26:28;;;;;;;5.95;4.43;;;;;;;;;;2039450;29;20032;-61
2022/05/24 00:27:28;;;;;;;8.43;4.45;;;;;;;;;;2040458;28;20044;-61
2022/05/24 00:28:29;;;;;;;9.60;3.97;;;;;;;;;;2054494;28;20041;-61
2022/05/24 00:29:30;;;;;;;9.27;4.43;;;;;;;;;;2049163;28;20089;-61
2022/05/24 00:30:31;;;;;;;9.45;4.20;;;;;;;;;;2052083;28;20090;-61
2022/05/24 00:31:32;;;;;;;10.73;4.70;;;;;;;;;;2034302;29;20382;-61
2022/05/24 00:32:33;;;;;;;9.27;4.30;;;;;;;;;;2027404;29;20099;-61
2022/05/24 00:33:34;;;;;;;6.65;4.13;;;;;;;;;;2031179;29;20039;-61
2022/05/24 00:34:35;;;;;;;11.70;4.03;;;;;;;;;;2039911;29;20040;-61
2022/05/24 00:35:36;;;;;;;10.13;4.72;;;;;;;;;;2039289;29;20040;-62
2022/05/24 00:36:37;;;;;;;9.05;4.00;;;;;;;;;;2032181;29;20487;-61
2022/05/24 00:37:38;;;;;;;9.98;4.43;;;;;;;;;;2032010;29;20347;-62
2022/05/24 00:38:39;;;;;;;7.35;4.43;;;;;;;;;;2039639;29;20043;-61
2022/05/24 00:39:40;;;;;;;8.82;4.25;;;;;;;;;;2047009;29;20039;-62
2022/05/24 00:40:46;;;;;;;7.85;4.28;;;;;;;;;;2040050;29;20035;-61
2022/05/24 00:41:47;;;;;;;6.93;3.90;;;;;;;;;;2038100;28;20039;-61
2022/05/24 00:42:48;;;;;;;6.40;3.80;;;;;;;;;;2047028;29;20055;-62
2022/05/24 00:44:05;;;;;;;6.85;3.70;;;;;;;;;;2045809;28;20043;-61
2022/05/24 00:45:10;;;;;;;9.60;4.88;;;;;;;;;;2046118;28;20039;-62
2022/05/24 00:46:14;;;;;;;6.18;3.88;;;;;;;;;;2057833;28;20382;-61
2022/05/24 00:47:16;;;;;;;7.00;4.18;;;;;;;;;;2065449;28;20041;-62
2022/05/24 00:48:22;;;;;;;7.60;3.72;;;;;;;;;;2057041;28;20034;-61
2022/05/24 00:49:25;;;;;;;8.07;4.03;;;;;;;;;;2042294;29;20036;-62
2022/05/24 00:50:29;;;;;;;9.48;4.20;;;;;;;;;;2042660;28;20039;-61
2022/05/24 00:51:34;;;;;;;5.35;3.70;;;;;;;;;;2041339;29;20040;-63
2022/05/24 00:52:42;;;;;;;9.20;3.60;;;;;;;;;;2049050;29;20051;-61
2022/05/24 00:53:45;;;;;;;5.63;3.70;;;;;;;;;;2041808;29;20510;-63
2022/05/24 00:54:46;;;;;;;7.93;3.67;;;;;;;;;;2046469;28;20039;-63
2022/05/24 00:55:52;;;;;;;6.32;3.75;;;;;;;;;;2041464;29;20399;-62
2022/05/24 00:56:53;;;;;;;9.48;4.43;;;;;;;;;;2042634;29;20039;-62
2022/05/24 00:58:12;;;;;;;8.95;3.97;;;;;;;;;;2052568;28;20081;-63
2022/05/24 00:59:19;;;;;;;9.82;3.83;;;;;;;;;;2050321;28;20031;-62
2022/05/24 01:00:21;;;;;;;8.70;4.05;;;;;;;;;;2057210;28;20049;-62
2022/05/24 01:01:25;;;;;;;7.45;4.03;;;;;;;;;;2048971;29;20524;-64
2022/05/24 01:02:26;;;;;;;7.03;4.43;;;;;;;;;;2034782;29;20036;-63
2022/05/24 01:03:27;;;;;;;7.07;3.97;;;;;;;;;;2033396;29;20043;-63
2022/05/24 01:04:28;;;;;;;10.50;4.38;;;;;;;;;;2033945;29;20116;-62
2022/05/24 01:05:30;;;;;;;7.88;3.85;;;;;;;;;;2033267;29;20040;-61
2022/05/24 01:06:30;;;;;;;9.65;4.60;;;;;;;;;;2034579;29;20060;-62
2022/05/24 01:07:31;;;;;;;7.75;4.25;;;;;;;;;;2040885;29;20108;-62
2022/05/24 01:08:32;;;;;;;9.68;4.65;;;;;;;;;;2033472;29;20036;-62
2022/05/24 01:09:40;;;;;;;7.38;4.05;;;;;;;;;;2039228;29;20040;-63
2022/05/24 01:10:43;;;;;;;8.70;4.55;;;;;;;;;;2043486;28;20156;-64
2022/05/24 01:11:44;;;;;;;8.57;4.15;;;;;;;;;;2033849;29;20529;-62
2022/05/24 01:12:51;;;;;;;8.75;4.10;;;;;;;;;;2040930;28;20797;-63
2022/05/24 01:13:52;;;;;;;7.13;4.57;;;;;;;;;;2057267;28;20452;-61
2022/05/24 01:14:53;;;;;;;8.57;3.47;;;;;;;;;;2057661;28;20042;-64
2022/05/24 01:15:53;;;;;;;10.02;4.40;;;;;;;;;;2049259;29;20051;-63
2022/05/24 01:16:54;;;;;;;7.00;3.53;;;;;;;;;;2033505;29;20055;-64
2022/05/24 01:17:55;;;;;;;7.88;3.67;;;;;;;;;;2033010;29;20048;-63
2022/05/24 01:18:56;;;;;;;9.75;3.75;;;;;;;;;;2041163;29;20095;-63
2022/05/24 01:19:57;;;;;;;8.45;3.97;;;;;;;;;;2033899;29;20187;-64
2022/05/24 01:21:00;;;;;;;5.82;3.90;;;;;;;;;;2033557;29;20036;-64
2022/05/24 01:22:05;;;;;;;9.43;3.92;;;;;;;;;;2040980;29;20373;-64
2022/05/24 01:23:25;;;;;;;9.32;3.70;;;;;;;;;;2042008;28;20043;-63
2022/05/24 01:24:25;;;;;;;7.22;3.90;;;;;;;;;;2036329;29;20036;-60
2022/05/24 01:25:46;;;;;;;8.32;3.90;;;;;;;;;;2036199;29;20031;-62
2022/05/24 01:26:49;;;;;;;5.47;3.70;;;;;;;;;;2044570;28;20036;-63
2022/05/24 01:27:50;;;;;;;7.97;3.80;;;;;;;;;;2041703;29;20046;-62
2022/05/24 01:28:53;;;;;;;7.47;3.95;;;;;;;;;;2033189;29;20455;-62
2022/05/24 01:29:54;;;;;;;9.00;4.25;;;;;;;;;;2049682;28;20140;-62
2022/05/24 01:30:55;;;;;;;6.63;3.78;;;;;;;;;;2048329;29;20039;-61
2022/05/24 01:37:11;;;;;;;8.15;3.70;;;;;;;;;;2046785;28;20387;-64
2022/05/24 01:38:13;;;;;;;7.43;3.70;;;;;;;;;;2029820;29;20041;-64
2022/05/24 01:39:14;;;;;;;10.43;4.28;;;;;;;;;;2018596;29;20053;-63
2022/05/24 01:40:15;;;;;;;6.20;3.65;;;;;;;;;;2031908;29;20040;-63
2022/05/24 01:41:18;;;;;;;8.30;3.70;;;;;;;;;;2026073;29;20040;-61
2022/05/24 01:42:19;;;;;;;6.40;3.55;;;;;;;;;;2034491;29;20048;-61
2022/05/24 01:43:20;;;;;;;5.53;3.80;;;;;;;;;;2040584;29;20039;-61
2022/05/24 01:44:22;;;;;;;6.35;4.03;;;;;;;;;;2033317;29;20048;-62
2022/05/24 01:45:25;;;;;;;7.72;4.00;;;;;;;;;;2033301;29;20052;-62
2022/05/24 01:46:32;;;;;;;5.35;3.58;;;;;;;;;;2033753;29;20043;-62
2022/05/24 01:47:32;;;;;;;5.43;3.40;;;;;;;;;;2049497;28;20050;-61
2022/05/24 01:48:35;;;;;;;7.88;3.83;;;;;;;;;;2033995;29;20119;-62
2022/05/24 01:49:38;;;;;;;6.35;3.22;;;;;;;;;;2033268;29;20047;-61
2022/05/24 01:50:40;;;;;;;8.20;3.63;;;;;;;;;;2033411;29;20055;-61
2022/05/24 01:51:43;;;;;;;8.00;4.13;;;;;;;;;;2033173;29;20050;-61
2022/05/24 01:52:44;;;;;;;7.70;3.85;;;;;;;;;;2033158;29;20055;-62
2022/05/24 01:53:47;;;;;;;6.78;3.80;;;;;;;;;;2048564;28;20054;-62
2022/05/24 01:54:49;;;;;;;5.85;3.60;;;;;;;;;;2041623;29;20044;-62
2022/05/24 01:55:53;;;;;;;6.22;3.55;;;;;;;;;;2041084;29;20044;-62
2022/05/24 01:56:57;;;;;;;6.60;3.88;;;;;;;;;;2033002;29;20048;-61
2022/05/24 01:57:58;;;;;;;8.57;4.30;;;;;;;;;;2036891;29;20066;-61
2022/05/24 01:59:01;;;;;;;8.38;3.70;;;;;;;;;;2047910;28;20046;-62
2022/05/24 02:00:02;;;;;;;7.40;3.67;;;;;;;;;;2056845;28;20058;-62
2022/05/24 02:01:05;;;;;;;7.00;3.80;;;;;;;;;;2048746;28;20585;-61
2022/05/24 02:02:10;;;;;;;5.40;3.38;;;;;;;;;;2055891;28;20047;-62
2022/05/24 02:03:11;;;;;;;6.78;4.00;;;;;;;;;;2053576;28;20045;-61
2022/05/24 02:04:15;;;;;;;5.95;3.63;;;;;;;;;;2050020;28;20091;-61
2022/05/24 02:05:27;;;;;;;8.00;4.68;;;;;;;;;;2057516;28;20596;-62
2022/05/24 02:06:28;;;;;;;7.20;3.75;;;;;;;;;;2048960;29;20043;-62
2022/05/24 02:07:29;;;;;;;5.03;3.67;;;;;;;;;;2048726;29;20449;-61
2022/05/24 02:08:30;;;;;;;9.98;3.72;;;;;;;;;;2048743;29;20042;-62
2022/05/24 02:09:32;;;;;;;9.13;3.88;;;;;;;;;;2041103;29;20040;-61
2022/05/24 02:10:52;;;;;;;7.32;4.25;;;;;;;;;;2040919;29;20543;-62
2022/05/24 02:11:54;;;;;;;10.32;3.85;;;;;;;;;;2037583;29;20051;-62
2022/05/24 02:12:56;;;;;;;5.50;3.60;;;;;;;;;;2039865;29;20426;-61
2022/05/24 02:14:16;;;;;;;7.88;4.10;;;;;;;;;;2033907;29;20066;-61
2022/05/24 02:15:19;;;;;;;10.82;4.32;;;;;;;;;;2046353;28;20062;-62
2022/05/24 02:16:22;;;;;;;8.40;4.20;;;;;;;;;;2042838;29;20055;-61
2022/05/24 02:17:24;;;;;;;8.02;4.20;;;;;;;;;;2033833;29;20186;-60
2022/05/24 02:18:24;;;;;;;7.20;3.38;;;;;;;;;;2041214;29;20055;-62
2022/05/24 02:19:25;;;;;;;6.53;4.07;;;;;;;;;;2033240;29;20048;-62
2022/05/24 02:20:27;;;;;;;6.75;3.65;;;;;;;;;;2025386;29;20048;-62
2022/05/24 02:21:28;;;;;;;5.53;3.70;;;;;;;;;;2033491;29;20533;-62
2022/05/24 02:22:29;;;;;;;7.72;4.10;;;;;;;;;;2044309;29;20054;-61
2022/05/24 02:23:30;;;;;;;7.38;3.90;;;;;;;;;;2039898;29;20044;-62
2022/05/24 02:24:31;;;;;;;6.30;3.50;;;;;;;;;;2039206;29;20103;-62
2022/05/24 02:25:35;;;;;;;6.10;3.88;;;;;;;;;;2048495;28;20039;-62
2022/05/24 02:26:36;;;;;;;7.50;3.60;;;;;;;;;;2049403;28;20035;-61
2022/05/24 02:27:38;;;;;;;7.55;4.10;;;;;;;;;;2048957;29;20039;-62
2022/05/24 02:28:39;;;;;;;5.63;3.58;;;;;;;;;;2040566;29;20477;-62
2022/05/24 02:29:42;;;;;;;6.63;3.88;;;;;;;;;;2033063;29;20047;-61
2022/05/24 02:30:44;;;;;;;7.60;3.97;;;;;;;;;;2037648;28;20074;-62
2022/05/24 02:31:45;;;;;;;5.22;3.65;;;;;;;;;;2056201;28;20047;-62
2022/05/24 02:32:46;;;;;;;6.60;3.88;;;;;;;;;;2048458;29;20446;-62
2022/05/24 02:33:47;;;;;;;5.68;3.53;;;;;;;;;;2048254;29;20573;-61
2022/05/24 02:34:47;;;;;;;8.98;3.90;;;;;;;;;;2048607;29;20047;-62
2022/05/24 02:35:48;;;;;;;8.73;3.60;;;;;;;;;;2048561;29;20043;-62
2022/05/24 02:36:49;;;;;;;8.35;3.42;;;;;;;;;;2048733;29;20043;-61
2022/05/24 02:37:50;;;;;;;6.07;3.45;;;;;;;;;;2032351;29;20498;-61
2022/05/24 02:38:51;;;;;;;7.03;4.00;;;;;;;;;;2033067;29;20051;-62
2022/05/24 02:42:32;;;;;;;5.35;3.30;;;;;;;;;;2057115;28;20436;-62
2022/05/24 02:43:32;;;;;;;5.90;3.42;;;;;;;;;;2053822;28;20042;-62
2022/05/24 02:44:33;;;;;;;5.32;3.47;;;;;;;;;;2055409;28;20053;-61
2022/05/24 02:45:34;;;;;;;9.30;3.88;;;;;;;;;;2047877;29;20046;-62
2022/05/24 02:46:35;;;;;;;5.88;3.63;;;;;;;;;;2045101;29;20135;-61
2022/05/24 02:47:36;;;;;;;6.05;3.65;;;;;;;;;;2033488;29;20391;-62
2022/05/24 02:48:37;;;;;;;6.93;4.22;;;;;;;;;;2048386;28;20099;-62
2022/05/24 02:49:38;;;;;;;9.88;3.67;;;;;;;;;;2056067;28;20460;-61
2022/05/24 02:50:39;;;;;;;6.00;3.53;;;;;;;;;;2048629;29;20055;-61
2022/05/24 02:51:40;;;;;;;7.22;4.00;;;;;;;;;;2040240;29;20131;-61
2022/05/24 02:52:41;;;;;;;8.20;3.78;;;;;;;;;;2048534;28;20043;-62
2022/05/24 02:53:42;;;;;;;9.52;3.85;;;;;;;;;;2047997;29;20098;-62
2022/05/24 02:54:43;;;;;;;6.38;3.85;;;;;;;;;;2048794;28;20058;-62
2022/05/24 02:55:44;;;;;;;7.70;3.53;;;;;;;;;;2048810;28;20043;-61
2022/05/24 02:56:44;;;;;;;5.35;3.63;;;;;;;;;;2040604;29;20047;-62
2022/05/24 02:57:45;;;;;;;6.32;4.00;;;;;;;;;;2032227;29;20052;-62
2022/05/24 02:58:46;;;;;;;7.78;3.85;;;;;;;;;;2032605;29;20106;-61
2022/05/24 02:59:47;;;;;;;6.88;3.72;;;;;;;;;;2040411;29;20505;-62
2022/05/24 03:00:48;;;;;;;7.80;3.78;;;;;;;;;;2040355;29;20047;-62
2022/05/24 03:01:48;;;;;;;5.95;3.55;;;;;;;;;;2040954;29;20057;-61
2022/05/24 03:02:49;;;;;;;10.60;3.72;;;;;;;;;;2047955;29;20609;-60
2022/05/24 03:03:56;;;;;;;8.35;3.95;;;;;;;;;;2056296;28;20089;-60
2022/05/24 03:04:56;;;;;;;5.43;3.53;;;;;;;;;;2040136;29;20064;-60
2022/05/24 03:05:57;;;;;;;8.77;4.15;;;;;;;;;;2048304;29;20051;-60
2022/05/24 03:09:38;;;;;;;6.50;3.38;;;;;;;;;;2042534;29;20062;-60
2022/05/24 03:10:39;;;;;;;8.73;3.53;;;;;;;;;;2042545;29;20054;-61
2022/05/24 03:14:20;;;;;;;7.72;3.85;;;;;;;;;;2053483;28;20042;-61
2022/05/24 03:15:21;;;;;;;6.25;3.55;;;;;;;;;;2055996;28;20035;-62
2022/05/24 03:16:22;;;;;;;6.80;3.80;;;;;;;;;;2048437;29;20071;-61
2022/05/24 03:17:22;;;;;;;6.57;3.50;;;;;;;;;;2035457;29;20048;-60
2022/05/24 03:18:23;;;;;;;6.32;3.80;;;;;;;;;;2033177;29;20131;-61
2022/05/24 03:19:24;;;;;;;6.68;4.07;;;;;;;;;;2037934;29;20051;-61
2022/05/24 03:20:26;;;;;;;7.82;4.13;;;;;;;;;;2040846;29;20050;-61
2022/05/24 03:21:27;;;;;;;6.13;3.70;;;;;;;;;;2040398;29;20043;-61
2022/05/24 03:22:27;;;;;;;7.50;3.80;;;;;;;;;;2036274;29;20044;-61
2022/05/24 03:23:28;;;;;;;5.05;3.47;;;;;;;;;;2039839;29;20534;-61
2022/05/24 03:24:29;;;;;;;7.13;3.95;;;;;;;;;;2041088;29;20387;-61
2022/05/24 03:25:31;;;;;;;6.00;3.92;;;;;;;;;;2040309;29;20130;-61
2022/05/24 03:26:33;;;;;;;5.63;3.40;;;;;;;;;;2048236;28;20050;-61
2022/05/24 03:27:33;;;;;;;9.13;4.57;;;;;;;;;;2056199;28;20060;-61
2022/05/24 03:28:34;;;;;;;5.13;3.78;;;;;;;;;;2056085;28;20082;-62
2022/05/24 03:29:35;;;;;;;6.28;3.88;;;;;;;;;;2038947;29;20837;-61
2022/05/24 03:30:37;;;;;;;7.65;4.15;;;;;;;;;;2035897;29;20099;-61
2022/05/24 03:31:38;;;;;;;6.55;3.92;;;;;;;;;;2048344;28;20058;-61
2022/05/24 03:32:39;;;;;;;9.60;3.60;;;;;;;;;;2032805;29;20541;-61
2022/05/24 03:33:40;;;;;;;8.88;4.50;;;;;;;;;;2039654;29;20082;-61
2022/05/24 03:34:41;;;;;;;6.20;4.10;;;;;;;;;;2040425;29;20056;-61
2022/05/24 03:35:41;;;;;;;6.10;3.85;;;;;;;;;;2040180;29;20122;-61
2022/05/24 03:36:42;;;;;;;9.77;4.70;;;;;;;;;;2044771;29;20113;-61
2022/05/24 03:37:43;;;;;;;7.32;4.15;;;;;;;;;;2047620;29;20493;-61
2022/05/24 03:38:44;;;;;;;9.52;4.35;;;;;;;;;;2033017;29;20044;-61
2022/05/24 03:39:46;;;;;;;8.25;4.68;;;;;;;;;;2024940;29;20051;-61
2022/05/24 03:40:47;;;;;;;7.97;3.70;;;;;;;;;;2033183;29;20396;-61
2022/05/24 03:41:49;;;;;;;7.22;4.18;;;;;;;;;;2048086;29;20043;-61
2022/05/24 03:42:52;;;;;;;7.60;4.65;;;;;;;;;;2032674;29;20040;-61
2022/05/24 03:43:53;;;;;;;7.35;4.30;;;;;;;;;;2039081;28;20046;-61
2022/05/24 03:44:53;;;;;;;7.72;4.90;;;;;;;;;;2048267;29;20042;-61
2022/05/24 03:46:14;;;;;;;6.40;4.47;;;;;;;;;;2050776;28;20035;-61
2022/05/24 03:47:15;;;;;;;6.38;4.00;;;;;;;;;;2040275;29;20044;-61
2022/05/24 03:48:16;;;;;;;10.80;4.32;;;;;;;;;;2039368;29;20051;-62
2022/05/24 03:49:17;;;;;;;6.40;4.80;;;;;;;;;;2055837;28;20528;-61
2022/05/24 03:50:18;;;;;;;9.52;5.03;;;;;;;;;;2039319;29;20039;-60
2022/05/24 03:51:18;;;;;;;9.27;4.40;;;;;;;;;;2040441;29;20051;-61
2022/05/24 03:52:19;;;;;;;9.60;4.82;;;;;;;;;;2055896;28;20047;-61
2022/05/24 03:53:20;;;;;;;8.35;5.30;;;;;;;;;;2040090;29;20047;-61
2022/05/24 03:54:22;;;;;;;10.30;4.95;;;;;;;;;;2032222;29;20430;-61
2022/05/24 03:55:23;;;;;;;11.98;5.43;;;;;;;;;;2044402;28;20063;-62
2022/05/24 03:56:26;;;;;;;11.38;5.57;;;;;;;;;;2040408;29;20541;-62
2022/05/24 03:58:46;;;;;;;8.70;5.30;;;;;;;;;;2051012;28;20059;-62
2022/05/24 03:59:48;;;;;;;8.20;5.35;;;;;;;;;;2038222;29;20063;-63
2022/05/24 04:00:49;;;;;;;7.88;5.45;;;;;;;;;;2039387;28;20058;-62
2022/05/24 04:01:50;;;;;;;11.40;5.43;;;;;;;;;;2048221;28;20043;-63
2022/05/24 04:02:50;;;;;;;11.90;5.50;;;;;;;;;;2048075;29;20607;-62
2022/05/24 04:03:51;;;;;;;9.05;5.20;;;;;;;;;;2040102;29;20043;-63
2022/05/24 04:04:52;;;;;;;8.32;5.18;;;;;;;;;;2047804;29;20374;-61
2022/05/24 04:05:53;;;;;;;8.38;5.55;;;;;;;;;;2046933;28;20043;-62
2022/05/24 04:06:54;;;;;;;9.13;5.28;;;;;;;;;;2064411;28;20050;-62
2022/05/24 04:07:55;;;;;;;7.57;4.75;;;;;;;;;;2043986;29;20052;-62
2022/05/24 04:08:55;;;;;;;12.02;5.35;;;;;;;;;;2032028;29;20062;-62
2022/05/24 04:09:56;;;;;;;12.65;5.90;;;;;;;;;;2046699;29;20054;-62
2022/05/24 04:11:01;;;;;;;12.23;5.45;;;;;;;;;;2047986;29;20050;-61
2022/05/24 04:12:02;;;;;;;9.80;5.45;;;;;;;;;;2048800;28;20039;-61
2022/05/24 04:13:04;;;;;;;9.00;5.47;;;;;;;;;;2047865;28;20035;-61
2022/05/24 04:14:05;;;;;;;9.55;5.57;;;;;;;;;;2055796;28;20553;-62
2022/05/24 04:15:06;;;;;;;10.40;5.70;;;;;;;;;;2048519;28;20501;-61
2022/05/24 04:16:07;;;;;;;8.32;5.78;;;;;;;;;;2040501;29;20477;-61
2022/05/24 04:17:08;;;;;;;8.38;5.28;;;;;;;;;;2040183;28;20522;-61
2022/05/24 04:18:09;;;;;;;8.30;5.22;;;;;;;;;;2047891;28;20035;-61
2022/05/24 04:19:10;;;;;;;10.35;5.95;;;;;;;;;;2055205;28;20066;-62
2022/05/24 04:20:11;;;;;;;10.50;5.65;;;;;;;;;;2056081;28;20030;-62
2022/05/24 04:21:12;;;;;;;8.45;6.00;;;;;;;;;;2048470;28;20035;-61
2022/05/24 04:22:12;;;;;;;9.95;5.40;;;;;;;;;;2031978;29;20119;-61
2022/05/24 04:23:14;;;;;;;9.73;5.72;;;;;;;;;;2032426;29;20055;-61
2022/05/24 04:24:15;;;;;;;8.52;5.05;;;;;;;;;;2032091;29;20131;-61
2022/05/24 04:25:15;;;;;;;9.90;5.97;;;;;;;;;;2024364;29;20048;-62
2022/05/24 04:26:17;;;;;;;11.07;5.55;;;;;;;;;;2048058;29;20170;-61
2022/05/24 04:27:17;;;;;;;12.35;5.55;;;;;;;;;;2057069;28;20041;-61
2022/05/24 04:28:18;;;;;;;8.50;5.50;;;;;;;;;;2056168;28;20043;-62
2022/05/24 04:29:19;;;;;;;10.18;6.13;;;;;;;;;;2040564;29;20051;-61
2022/05/24 04:30:20;;;;;;;13.15;5.95;;;;;;;;;;2039234;29;20114;-62
2022/05/24 04:31:25;;;;;;;9.55;5.63;;;;;;;;;;2032315;29;20632;-61
2022/05/24 04:32:25;;;;;;;7.18;4.93;;;;;;;;;;2028716;29;20055;-61
2022/05/24 04:33:26;;;;;;;8.85;5.68;;;;;;;;;;2047551;28;20078;-63
2022/05/24 04:34:28;;;;;;;9.45;5.00;;;;;;;;;;2047041;29;20047;-61
2022/05/24 04:35:29;;;;;;;9.23;4.80;;;;;;;;;;2048053;28;20075;-61
2022/05/24 04:36:31;;;;;;;9.05;5.28;;;;;;;;;;2056088;28;20035;-62
2022/05/24 04:37:32;;;;;;;12.00;5.75;;;;;;;;;;2048065;28;20047;-62
2022/05/24 04:38:33;;;;;;;7.05;4.97;;;;;;;;;;2047981;29;20054;-61
2022/05/24 04:39:33;;;;;;;8.25;5.30;;;;;;;;;;2047804;28;20043;-61
2022/05/24 04:43:16;;;;;;;9.57;4.93;;;;;;;;;;2055574;28;20058;-61
2022/05/24 04:44:16;;;;;;;12.15;5.13;;;;;;;;;;2055852;28;20096;-61
2022/05/24 04:45:17;;;;;;;8.40;5.13;;;;;;;;;;2040569;28;20098;-61
2022/05/24 04:46:18;;;;;;;8.38;5.18;;;;;;;;;;2040126;29;20050;-62
2022/05/24 04:47:19;;;;;;;9.52;4.55;;;;;;;;;;2039791;29;20135;-62
2022/05/24 04:48:21;;;;;;;8.32;5.40;;;;;;;;;;2055455;28;20050;-62
2022/05/24 04:49:22;;;;;;;10.05;5.65;;;;;;;;;;2040033;29;20139;-62
2022/05/24 04:50:23;;;;;;;8.80;5.35;;;;;;;;;;2031674;29;20478;-61
2022/05/24 04:51:24;;;;;;;8.70;4.75;;;;;;;;;;2031740;29;20213;-61
2022/05/24 04:52:26;;;;;;;7.88;4.50;;;;;;;;;;2055580;28;20273;-61
2022/05/24 04:53:27;;;;;;;8.18;4.72;;;;;;;;;;2055526;28;20043;-61
2022/05/24 04:54:28;;;;;;;13.07;5.10;;;;;;;;;;2055930;28;20484;-61
2022/05/24 04:55:29;;;;;;;8.93;4.32;;;;;;;;;;2047910;28;20043;-62
2022/05/24 04:56:30;;;;;;;6.63;4.22;;;;;;;;;;2047750;29;20035;-61
2022/05/24 04:57:31;;;;;;;9.88;4.55;;;;;;;;;;2047599;28;20040;-61
2022/05/24 04:58:31;;;;;;;9.65;5.03;;;;;;;;;;2055427;28;20035;-61
2022/05/24 04:59:32;;;;;;;8.45;4.68;;;;;;;;;;2047414;29;20043;-62
2022/05/24 05:00:33;;;;;;;6.75;4.63;;;;;;;;;;2047667;29;20043;-62
2022/05/24 05:01:34;;;;;;;9.70;4.93;;;;;;;;;;2052584;28;20173;-61
2022/05/24 05:02:34;;;;;;;9.05;4.82;;;;;;;;;;2051755;28;20050;-61
2022/05/24 05:03:35;;;;;;;8.25;5.13;;;;;;;;;;2041485;28;20103;-62
2022/05/24 05:04:36;;;;;;;7.88;4.45;;;;;;;;;;2038636;29;20082;-61
2022/05/24 05:05:37;;;;;;;8.75;5.05;;;;;;;;;;2047683;29;20371;-62
2022/05/24 05:06:45;;;;;;;9.48;5.05;;;;;;;;;;2056078;28;20046;-61
2022/05/24 05:07:46;;;;;;;9.45;5.28;;;;;;;;;;2055851;28;20035;-62
2022/05/24 05:08:47;;;;;;;8.60;5.43;;;;;;;;;;2056094;28;20039;-61
2022/05/24 05:09:49;;;;;;;6.50;4.65;;;;;;;;;;2056071;28;20065;-62
2022/05/24 05:10:50;;;;;;;6.65;4.57;;;;;;;;;;2047890;28;20040;-62
2022/05/24 05:11:51;;;;;;;8.32;4.97;;;;;;;;;;2055246;28;20047;-62
2022/05/24 05:12:52;;;;;;;8.27;5.20;;;;;;;;;;2055203;28;20050;-62
2022/05/24 05:13:53;;;;;;;6.85;4.55;;;;;;;;;;2055364;28;20059;-61
2022/05/24 05:14:53;;;;;;;9.45;5.00;;;;;;;;;;2047695;29;20085;-62
2022/05/24 05:15:54;;;;;;;7.93;3.90;;;;;;;;;;2044973;29;20067;-62
2022/05/24 05:16:55;;;;;;;8.70;4.65;;;;;;;;;;2032575;29;20052;-61
2022/05/24 05:18:01;;;;;;;10.30;4.35;;;;;;;;;;2039553;29;20513;-61
2022/05/24 05:19:03;;;;;;;9.18;4.75;;;;;;;;;;2048891;28;20051;-61
2022/05/24 05:20:04;;;;;;;8.43;4.68;;;;;;;;;;2055460;28;20077;-61
2022/05/24 05:21:05;;;;;;;10.60;4.55;;;;;;;;;;2063005;28;20039;-62
2022/05/24 05:22:07;;;;;;;6.97;4.38;;;;;;;;;;2055335;28;20050;-61
2022/05/24 05:23:09;;;;;;;7.47;3.95;;;;;;;;;;2039825;29;20035;-61
2022/05/24 05:24:09;;;;;;;13.13;4.95;;;;;;;;;;2040411;29;20040;-63
2022/05/24 05:25:10;;;;;;;6.57;4.15;;;;;;;;;;2040812;29;20031;-61
2022/05/24 05:26:14;;;;;;;8.27;4.07;;;;;;;;;;2055434;28;20050;-62
2022/05/24 05:27:15;;;;;;;6.55;3.97;;;;;;;;;;2052575;28;20035;-62
2022/05/24 05:28:16;;;;;;;8.18;4.78;;;;;;;;;;2047900;29;20051;-61
2022/05/24 05:31:16;;;;;;;9.00;4.70;;;;;;;;;;2047647;29;20051;-63
2022/05/24 05:31:57;;;;;;;9.00;3.88;;;;;;;;;;2049988;28;20046;-61
2022/05/24 05:32:58;;;;;;;8.38;4.80;;;;;;;;;;2051168;28;20474;-61
2022/05/24 05:33:59;;;;;;;8.80;3.97;;;;;;;;;;2049506;28;20472;-62
2022/05/24 05:35:00;;;;;;;6.47;4.40;;;;;;;;;;2041638;28;20044;-62
2022/05/24 05:36:01;;;;;;;8.05;4.82;;;;;;;;;;2057225;28;20042;-61
2022/05/24 05:37:05;;;;;;;9.98;6.82;;;;;;;;;;2057868;28;20057;-61
2022/05/24 05:38:06;;;;;;;8.77;5.35;;;;;;;;;;2049062;29;20425;-61
2022/05/24 05:39:07;;;;;;;8.18;4.90;;;;;;;;;;2041740;29;20051;-62
2022/05/24 05:40:08;;;;;;;7.80;5.22;;;;;;;;;;2046421;29;20118;-62
2022/05/24 05:41:09;;;;;;;6.97;4.65;;;;;;;;;;2033421;29;20103;-62
2022/05/24 05:42:10;;;;;;;8.48;4.70;;;;;;;;;;2048539;29;20062;-61
2022/05/24 05:43:11;;;;;;;5.57;4.15;;;;;;;;;;2032805;29;20040;-61
2022/05/24 05:44:12;;;;;;;9.95;5.53;;;;;;;;;;2041649;29;20390;-61
2022/05/24 05:45:14;;;;;;;8.73;5.35;;;;;;;;;;2063634;28;20026;-62
2022/05/24 05:46:15;;;;;;;7.57;4.50;;;;;;;;;;2057882;28;20031;-61
2022/05/24 05:47:16;;;;;;;6.65;4.57;;;;;;;;;;2046783;29;20035;-61
2022/05/24 05:48:17;;;;;;;8.18;5.55;;;;;;;;;;2043512;28;20047;-63
2022/05/24 05:49:18;;;;;;;6.82;4.80;;;;;;;;;;2056675;28;20066;-62
2022/05/24 05:50:20;;;;;;;11.02;4.97;;;;;;;;;;2049103;28;20085;-60
2022/05/24 05:51:21;;;;;;;12.75;5.47;;;;;;;;;;2056189;28;20051;-61
2022/05/24 05:52:23;;;;;;;8.50;4.97;;;;;;;;;;2056741;28;20050;-62
2022/05/24 05:53:24;;;;;;;6.97;4.70;;;;;;;;;;2056305;28;20078;-61
2022/05/24 05:54:25;;;;;;;6.78;4.82;;;;;;;;;;2056951;28;20221;-61
2022/05/24 05:55:26;;;;;;;8.52;4.82;;;;;;;;;;2057050;28;20051;-61
2022/05/24 05:56:27;;;;;;;9.60;5.35;;;;;;;;;;2056663;28;20042;-59
2022/05/24 05:57:28;;;;;;;8.45;5.30;;;;;;;;;;2048929;29;20086;-60
2022/05/24 05:58:29;;;;;;;9.20;5.07;;;;;;;;;;2046533;29;20039;-61
2022/05/24 05:59:29;;;;;;;8.68;4.70;;;;;;;;;;2039580;28;20035;-61
2022/05/24 06:00:30;;;;;;;7.57;5.45;;;;;;;;;;2054265;28;20043;-61
2022/05/24 06:01:32;;;;;;;10.32;5.53;;;;;;;;;;2048182;28;20050;-61
2022/05/24 06:02:33;;;;;;;11.02;5.57;;;;;;;;;;2048358;29;20521;-60
2022/05/24 06:03:34;;;;;;;7.00;4.90;;;;;;;;;;2048335;29;20035;-63
2022/05/24 06:04:36;;;;;;;7.75;4.90;;;;;;;;;;2056973;28;20043;-62
2022/05/24 06:05:37;;;;;;;9.43;5.60;;;;;;;;;;2048618;29;20438;-61
2022/05/24 06:06:39;;;;;;;8.63;5.38;;;;;;;;;;2041323;29;20425;-62
2022/05/24 06:07:40;;;;;;;9.18;4.72;;;;;;;;;;2048810;28;20039;-60
2022/05/24 06:08:41;;;;;;;8.38;5.00;;;;;;;;;;2056705;28;20035;-63
2022/05/24 06:09:42;;;;;;;7.35;4.80;;;;;;;;;;2057101;28;20050;-61
2022/05/24 06:10:43;;;;;;;7.72;4.65;;;;;;;;;;2057472;28;20043;-61
2022/05/24 06:11:44;;;;;;;7.15;5.00;;;;;;;;;;2057305;28;20051;-61
2022/05/24 06:12:45;;;;;;;10.25;4.40;;;;;;;;;;2057564;28;20049;-61
2022/05/24 06:13:46;;;;;;;8.40;4.32;;;;;;;;;;2040881;29;20050;-61
2022/05/24 06:14:47;;;;;;;7.88;4.30;;;;;;;;;;2040581;28;20044;-63
2022/05/24 06:15:52;;;;;;;7.22;4.50;;;;;;;;;;2049188;28;20473;-61
2022/05/24 06:16:52;;;;;;;7.28;4.43;;;;;;;;;;2048808;28;20055;-62
2022/05/24 06:17:53;;;;;;;7.47;4.40;;;;;;;;;;2049295;28;20501;-61
2022/05/24 06:18:55;;;;;;;7.45;4.07;;;;;;;;;;2056727;28;20043;-61
2022/05/24 06:19:59;;;;;;;6.82;4.38;;;;;;;;;;2064808;28;20050;-61
2022/05/24 06:21:00;;;;;;;6.53;3.92;;;;;;;;;;2056351;28;20517;-62
2022/05/24 06:22:02;;;;;;;5.90;3.95;;;;;;;;;;2038933;29;20035;-62
2022/05/24 06:23:03;;;;;;;6.13;4.13;;;;;;;;;;2040606;29;20135;-62
2022/05/24 06:24:05;;;;;;;7.32;4.00;;;;;;;;;;2048982;29;20145;-62
2022/05/24 06:25:06;;;;;;;5.70;3.42;;;;;;;;;;2049396;28;20043;-61
2022/05/24 06:26:08;;;;;;;7.07;3.70;;;;;;;;;;2056770;28;20046;-62
2022/05/24 06:27:09;;;;;;;4.20;3.55;;;;;;;;;;2047899;28;20039;-61
2022/05/24 06:28:13;;;;;;;5.78;3.75;;;;;;;;;;2056975;28;20078;-61
2022/05/24 06:29:14;;;;;;;7.90;4.47;;;;;;;;;;2056524;28;20043;-61
2022/05/24 06:30:15;;;;;;;5.80;3.80;;;;;;;;;;2047392;29;20042;-61